sensor_id;sensor_type;location;lat;lon;timestamp;temperature;humidity
13998;DHT22;7074;51.508;7.018;2024-01-15T00:00:38;3.00;99.90
13998;DHT22;7074;51.508;7.018;2024-01-15T00:03:05;3.00;99.90
13998;DHT22;7074;51.508;7.018;2024-01-15T00:05:34;3.00;99.90
13998;DHT22;7074;51.508;7.018;2024-01-15T00:08:01;3.00;99.90
13998;DHT22;7074;51.508;7.018;2024-01-15T00:10:28;3.00;99.90
13998;DHT22;7074;51.508;7.018;2024-01-15T00:12:55;3.10;99.90
13998;DHT22;7074;51.508;7.018;2024-01-15T00:15:22;3.00;99.90
13998;DHT22;7074;51.508;7.018;2024-01-15T00:17:50;3.10;99.90
13998;DHT22;7074;51.508;7.018;2024-01-15T00:20:17;3.10;99.90
13998;DHT22;7074;51.508;7.018;2024-01-15T00:22:46;3.00;99.90
13998;DHT22;7074;51.508;7.018;2024-01-15T00:25:13;3.10;99.90
13998;DHT22;7074;51.508;7.018;2024-01-15T00:27:40;3.10;99.90
13998;DHT22;7074;51.508;7.018;2024-01-15T00:30:08;3.00;99.90
13998;DHT22;7074;51.508;7.018;2024-01-15T00:32:35;3.00;99.90
13998;DHT22;7074;51.508;7.018;2024-01-15T00:35:02;3.00;99.90
13998;DHT22;7074;51.508;7.018;2024-01-15T00:37:30;3.00;99.90
13998;DHT22;7074;51.508;7.018;2024-01-15T00:39:59;3.00;99.90
13998;DHT22;7074;51.508;7.018;2024-01-15T00:42:26;3.00;99.90
13998;DHT22;7074;51.508;7.018;2024-01-15T00:44:53;3.10;99.90
13998;DHT22;7074;51.508;7.018;2024-01-15T00:47:21;3.00;99.90
13998;DHT22;7074;51.508;7.018;2024-01-15T00:49:48;3.10;99.90
13998;DHT22;7074;51.508;7.018;2024-01-15T00:52:15;3.10;99.90
13998;DHT22;7074;51.508;7.018;2024-01-15T00:54:42;3.00;99.90
13998;DHT22;7074;51.508;7.018;2024-01-15T00:57:10;3.00;99.90
13998;DHT22;7074;51.508;7.018;2024-01-15T00:59:37;3.10;99.90
13998;DHT22;7074;51.508;7.018;2024-01-15T01:02:05;3.10;99.90
13998;DHT22;7074;51.508;7.018;2024-01-15T01:04:32;3.10;99.90
13998;DHT22;7074;51.508;7.018;2024-01-15T01:06:59;3.10;99.90
13998;DHT22;7074;51.508;7.018;2024-01-15T01:09:26;3.10;99.90
13998;DHT22;7074;51.508;7.018;2024-01-15T01:11:56;3.10;99.90
13998;DHT22;7074;51.508;7.018;2024-01-15T01:14:24;3.10;99.90
13998;DHT22;7074;51.508;7.018;2024-01-15T01:16:51;3.20;99.90
13998;DHT22;7074;51.508;7.018;2024-01-15T01:19:18;3.20;99.90
13998;DHT22;7074;51.508;7.018;2024-01-15T01:21:45;3.20;99.90
13998;DHT22;7074;51.508;7.018;2024-01-15T01:24:12;3.20;99.90
13998;DHT22;7074;51.508;7.018;2024-01-15T01:26:39;3.30;99.90
13998;DHT22;7074;51.508;7.018;2024-01-15T01:29:06;3.30;99.90
13998;DHT22;7074;51.508;7.018;2024-01-15T01:31:35;3.30;99.90
13998;DHT22;7074;51.508;7.018;2024-01-15T01:34:03;3.30;99.90
13998;DHT22;7074;51.508;7.018;2024-01-15T01:36:31;3.30;99.90
13998;DHT22;7074;51.508;7.018;2024-01-15T01:38:59;3.30;99.90
13998;DHT22;7074;51.508;7.018;2024-01-15T01:41:26;3.40;99.90
13998;DHT22;7074;51.508;7.018;2024-01-15T01:43:53;3.30;99.90
13998;DHT22;7074;51.508;7.018;2024-01-15T01:46:21;3.30;99.90
13998;DHT22;7074;51.508;7.018;2024-01-15T01:48:49;3.30;99.90
13998;DHT22;7074;51.508;7.018;2024-01-15T01:51:17;3.30;99.90
13998;DHT22;7074;51.508;7.018;2024-01-15T01:53:44;3.30;99.90
13998;DHT22;7074;51.508;7.018;2024-01-15T01:56:13;3.30;99.90
13998;DHT22;7074;51.508;7.018;2024-01-15T01:58:40;3.30;99.90
13998;DHT22;7074;51.508;7.018;2024-01-15T02:01:07;3.30;99.90
13998;DHT22;7074;51.508;7.018;2024-01-15T02:03:35;3.30;99.90
13998;DHT22;7074;51.508;7.018;2024-01-15T02:06:04;3.30;99.90
13998;DHT22;7074;51.508;7.018;2024-01-15T02:08:31;3.30;99.90
13998;DHT22;7074;51.508;7.018;2024-01-15T02:10:59;3.20;99.90
13998;DHT22;7074;51.508;7.018;2024-01-15T02:13:26;3.20;99.90
13998;DHT22;7074;51.508;7.018;2024-01-15T02:15:53;3.30;99.90
13998;DHT22;7074;51.508;7.018;2024-01-15T02:18:20;3.30;99.90
13998;DHT22;7074;51.508;7.018;2024-01-15T02:20:47;3.20;99.90
13998;DHT22;7074;51.508;7.018;2024-01-15T02:23:16;3.30;99.90
13998;DHT22;7074;51.508;7.018;2024-01-15T02:25:45;3.20;99.90
13998;DHT22;7074;51.508;7.018;2024-01-15T02:28:13;3.20;99.90
13998;DHT22;7074;51.508;7.018;2024-01-15T02:30:41;3.20;99.90
13998;DHT22;7074;51.508;7.018;2024-01-15T02:33:09;3.20;99.90
13998;DHT22;7074;51.508;7.018;2024-01-15T02:35:37;3.20;99.90
13998;DHT22;7074;51.508;7.018;2024-01-15T02:38:04;3.20;99.90
13998;DHT22;7074;51.508;7.018;2024-01-15T02:40:33;3.20;99.90
13998;DHT22;7074;51.508;7.018;2024-01-15T02:43:01;3.10;99.90
13998;DHT22;7074;51.508;7.018;2024-01-15T02:45:28;3.20;99.90
13998;DHT22;7074;51.508;7.018;2024-01-15T02:47:56;3.10;99.90
13998;DHT22;7074;51.508;7.018;2024-01-15T02:50:23;3.20;99.90
13998;DHT22;7074;51.508;7.018;2024-01-15T02:52:50;3.20;99.90
13998;DHT22;7074;51.508;7.018;2024-01-15T02:55:17;3.20;99.90
13998;DHT22;7074;51.508;7.018;2024-01-15T02:57:46;3.20;99.90
13998;DHT22;7074;51.508;7.018;2024-01-15T03:00:14;3.20;99.90
13998;DHT22;7074;51.508;7.018;2024-01-15T03:02:45;3.20;99.90
13998;DHT22;7074;51.508;7.018;2024-01-15T03:05:12;3.20;99.90
13998;DHT22;7074;51.508;7.018;2024-01-15T03:07:39;3.20;99.90
13998;DHT22;7074;51.508;7.018;2024-01-15T03:10:07;3.20;99.90
13998;DHT22;7074;51.508;7.018;2024-01-15T03:12:34;3.20;99.90
13998;DHT22;7074;51.508;7.018;2024-01-15T03:15:03;3.30;99.90
13998;DHT22;7074;51.508;7.018;2024-01-15T03:17:31;3.20;99.90
13998;DHT22;7074;51.508;7.018;2024-01-15T03:19:58;3.20;99.90
13998;DHT22;7074;51.508;7.018;2024-01-15T03:22:25;3.20;99.90
13998;DHT22;7074;51.508;7.018;2024-01-15T03:24:53;3.20;99.90
13998;DHT22;7074;51.508;7.018;2024-01-15T03:27:20;3.30;99.90
13998;DHT22;7074;51.508;7.018;2024-01-15T03:29:47;3.30;99.90
13998;DHT22;7074;51.508;7.018;2024-01-15T03:32:16;3.20;99.90
13998;DHT22;7074;51.508;7.018;2024-01-15T03:34:43;3.20;99.90
13998;DHT22;7074;51.508;7.018;2024-01-15T03:37:10;3.20;99.90
13998;DHT22;7074;51.508;7.018;2024-01-15T03:39:38;3.20;99.90
13998;DHT22;7074;51.508;7.018;2024-01-15T03:42:06;3.20;99.90
13998;DHT22;7074;51.508;7.018;2024-01-15T03:44:34;3.30;99.90
13998;DHT22;7074;51.508;7.018;2024-01-15T03:47:01;3.30;99.90
13998;DHT22;7074;51.508;7.018;2024-01-15T03:49:30;3.20;99.90
13998;DHT22;7074;51.508;7.018;2024-01-15T03:51:57;3.20;99.90
13998;DHT22;7074;51.508;7.018;2024-01-15T03:54:24;3.30;99.90
13998;DHT22;7074;51.508;7.018;2024-01-15T03:56:52;3.30;99.90
13998;DHT22;7074;51.508;7.018;2024-01-15T03:59:19;3.30;99.90
13998;DHT22;7074;51.508;7.018;2024-01-15T04:01:49;3.30;99.90
13998;DHT22;7074;51.508;7.018;2024-01-15T04:04:16;3.30;99.90
13998;DHT22;7074;51.508;7.018;2024-01-15T04:06:45;3.30;99.90
13998;DHT22;7074;51.508;7.018;2024-01-15T04:09:13;3.30;99.90
13998;DHT22;7074;51.508;7.018;2024-01-15T04:11:40;3.30;99.90
13998;DHT22;7074;51.508;7.018;2024-01-15T04:14:07;3.30;99.90
13998;DHT22;7074;51.508;7.018;2024-01-15T04:16:35;3.30;99.90
13998;DHT22;7074;51.508;7.018;2024-01-15T04:19:02;3.30;99.90
13998;DHT22;7074;51.508;7.018;2024-01-15T04:21:30;3.40;99.90
13998;DHT22;7074;51.508;7.018;2024-01-15T04:23:59;3.30;99.90
13998;DHT22;7074;51.508;7.018;2024-01-15T04:26:26;3.30;99.90
13998;DHT22;7074;51.508;7.018;2024-01-15T04:28:53;3.30;99.90
13998;DHT22;7074;51.508;7.018;2024-01-15T04:31:24;3.30;99.90
13998;DHT22;7074;51.508;7.018;2024-01-15T04:33:52;3.30;99.90
13998;DHT22;7074;51.508;7.018;2024-01-15T04:36:19;3.30;99.90
13998;DHT22;7074;51.508;7.018;2024-01-15T04:38:47;3.30;99.90
13998;DHT22;7074;51.508;7.018;2024-01-15T04:41:16;3.30;99.90
13998;DHT22;7074;51.508;7.018;2024-01-15T04:43:43;3.30;99.90
13998;DHT22;7074;51.508;7.018;2024-01-15T04:46:10;3.30;99.90
13998;DHT22;7074;51.508;7.018;2024-01-15T04:48:37;3.30;99.90
13998;DHT22;7074;51.508;7.018;2024-01-15T04:51:05;3.30;99.90
13998;DHT22;7074;51.508;7.018;2024-01-15T04:53:33;3.40;99.90
13998;DHT22;7074;51.508;7.018;2024-01-15T04:56:00;3.30;99.90
13998;DHT22;7074;51.508;7.018;2024-01-15T04:58:29;3.40;99.90
13998;DHT22;7074;51.508;7.018;2024-01-15T05:00:56;3.40;99.90
13998;DHT22;7074;51.508;7.018;2024-01-15T05:03:23;3.40;99.90
13998;DHT22;7074;51.508;7.018;2024-01-15T05:05:51;3.40;99.90
13998;DHT22;7074;51.508;7.018;2024-01-15T05:08:18;3.40;99.90
13998;DHT22;7074;51.508;7.018;2024-01-15T05:10:45;3.40;99.90
13998;DHT22;7074;51.508;7.018;2024-01-15T05:13:14;3.40;99.90
13998;DHT22;7074;51.508;7.018;2024-01-15T05:15:47;3.40;99.90
13998;DHT22;7074;51.508;7.018;2024-01-15T05:18:17;3.40;99.90
13998;DHT22;7074;51.508;7.018;2024-01-15T05:20:45;3.40;99.90
13998;DHT22;7074;51.508;7.018;2024-01-15T05:23:14;3.40;99.90
13998;DHT22;7074;51.508;7.018;2024-01-15T05:25:42;3.50;99.90
13998;DHT22;7074;51.508;7.018;2024-01-15T05:28:11;3.40;99.90
13998;DHT22;7074;51.508;7.018;2024-01-15T05:30:41;3.30;99.90
13998;DHT22;7074;51.508;7.018;2024-01-15T05:33:11;3.40;99.90
13998;DHT22;7074;51.508;7.018;2024-01-15T05:35:42;3.40;99.90
13998;DHT22;7074;51.508;7.018;2024-01-15T05:38:12;3.30;99.90
13998;DHT22;7074;51.508;7.018;2024-01-15T05:40:45;3.40;99.90
13998;DHT22;7074;51.508;7.018;2024-01-15T05:43:14;3.40;99.90
13998;DHT22;7074;51.508;7.018;2024-01-15T05:45:45;3.40;99.90
13998;DHT22;7074;51.508;7.018;2024-01-15T05:48:15;3.30;99.90
13998;DHT22;7074;51.508;7.018;2024-01-15T05:50:42;3.40;99.90
13998;DHT22;7074;51.508;7.018;2024-01-15T05:53:10;3.30;99.90
13998;DHT22;7074;51.508;7.018;2024-01-15T05:55:38;3.30;99.90
13998;DHT22;7074;51.508;7.018;2024-01-15T05:58:05;3.30;99.90
13998;DHT22;7074;51.508;7.018;2024-01-15T06:00:35;3.40;99.90
13998;DHT22;7074;51.508;7.018;2024-01-15T06:03:07;3.30;99.90
13998;DHT22;7074;51.508;7.018;2024-01-15T06:05:39;3.40;99.90
13998;DHT22;7074;51.508;7.018;2024-01-15T06:08:07;3.30;99.90
13998;DHT22;7074;51.508;7.018;2024-01-15T06:10:38;3.30;99.90
13998;DHT22;7074;51.508;7.018;2024-01-15T06:13:07;3.40;99.90
13998;DHT22;7074;51.508;7.018;2024-01-15T06:15:35;3.40;99.90
13998;DHT22;7074;51.508;7.018;2024-01-15T06:18:06;3.40;99.90
13998;DHT22;7074;51.508;7.018;2024-01-15T06:20:33;3.40;99.90
13998;DHT22;7074;51.508;7.018;2024-01-15T06:23:02;3.40;99.90
13998;DHT22;7074;51.508;7.018;2024-01-15T06:25:29;3.50;99.90
13998;DHT22;7074;51.508;7.018;2024-01-15T06:28:05;3.50;99.90
13998;DHT22;7074;51.508;7.018;2024-01-15T06:30:39;3.60;99.90
13998;DHT22;7074;51.508;7.018;2024-01-15T06:33:06;3.60;99.90
13998;DHT22;7074;51.508;7.018;2024-01-15T06:35:34;3.60;99.90
13998;DHT22;7074;51.508;7.018;2024-01-15T06:38:03;3.60;99.90
13998;DHT22;7074;51.508;7.018;2024-01-15T06:40:42;3.70;99.90
13998;DHT22;7074;51.508;7.018;2024-01-15T06:43:20;3.60;99.90
13998;DHT22;7074;51.508;7.018;2024-01-15T06:45:50;3.60;99.90
13998;DHT22;7074;51.508;7.018;2024-01-15T06:48:17;3.60;99.90
13998;DHT22;7074;51.508;7.018;2024-01-15T06:50:45;3.50;99.90
13998;DHT22;7074;51.508;7.018;2024-01-15T06:53:16;3.50;99.90
13998;DHT22;7074;51.508;7.018;2024-01-15T06:55:43;3.50;99.90
13998;DHT22;7074;51.508;7.018;2024-01-15T06:58:10;3.50;99.90
13998;DHT22;7074;51.508;7.018;2024-01-15T07:00:45;3.60;99.90
13998;DHT22;7074;51.508;7.018;2024-01-15T07:03:15;3.60;99.90
13998;DHT22;7074;51.508;7.018;2024-01-15T07:05:45;3.60;99.90
13998;DHT22;7074;51.508;7.018;2024-01-15T07:08:14;3.60;99.90
13998;DHT22;7074;51.508;7.018;2024-01-15T07:10:42;3.60;99.90
13998;DHT22;7074;51.508;7.018;2024-01-15T07:13:11;3.60;99.90
13998;DHT22;7074;51.508;7.018;2024-01-15T07:15:39;3.60;99.90
13998;DHT22;7074;51.508;7.018;2024-01-15T07:18:07;3.60;99.90
13998;DHT22;7074;51.508;7.018;2024-01-15T07:20:34;3.50;99.90
13998;DHT22;7074;51.508;7.018;2024-01-15T07:23:19;3.50;99.90
13998;DHT22;7074;51.508;7.018;2024-01-15T07:25:53;3.60;99.90
13998;DHT22;7074;51.508;7.018;2024-01-15T07:28:29;3.50;99.90
13998;DHT22;7074;51.508;7.018;2024-01-15T07:31:06;3.50;99.90
13998;DHT22;7074;51.508;7.018;2024-01-15T07:33:40;3.60;99.90
13998;DHT22;7074;51.508;7.018;2024-01-15T07:36:09;3.60;99.90
13998;DHT22;7074;51.508;7.018;2024-01-15T07:38:41;3.50;99.90
13998;DHT22;7074;51.508;7.018;2024-01-15T07:41:11;3.50;99.90
13998;DHT22;7074;51.508;7.018;2024-01-15T07:43:40;3.50;99.90
13998;DHT22;7074;51.508;7.018;2024-01-15T07:46:19;3.60;99.90
13998;DHT22;7074;51.508;7.018;2024-01-15T07:48:50;3.60;99.90
13998;DHT22;7074;51.508;7.018;2024-01-15T07:51:22;3.60;99.90
13998;DHT22;7074;51.508;7.018;2024-01-15T07:53:58;3.60;99.90
13998;DHT22;7074;51.508;7.018;2024-01-15T07:56:31;3.80;99.90
13998;DHT22;7074;51.508;7.018;2024-01-15T07:59:00;3.80;99.90
13998;DHT22;7074;51.508;7.018;2024-01-15T08:01:30;3.80;99.90
13998;DHT22;7074;51.508;7.018;2024-01-15T08:03:59;3.70;99.90
13998;DHT22;7074;51.508;7.018;2024-01-15T08:06:26;3.70;99.90
13998;DHT22;7074;51.508;7.018;2024-01-15T08:08:59;3.70;99.90
13998;DHT22;7074;51.508;7.018;2024-01-15T08:11:27;3.60;99.90
13998;DHT22;7074;51.508;7.018;2024-01-15T08:13:59;3.50;99.90
13998;DHT22;7074;51.508;7.018;2024-01-15T08:16:27;3.50;99.90
13998;DHT22;7074;51.508;7.018;2024-01-15T08:18:54;3.50;99.90
13998;DHT22;7074;51.508;7.018;2024-01-15T08:21:22;3.40;99.90
13998;DHT22;7074;51.508;7.018;2024-01-15T08:23:49;3.40;99.90
13998;DHT22;7074;51.508;7.018;2024-01-15T08:26:19;3.40;99.90
13998;DHT22;7074;51.508;7.018;2024-01-15T08:28:49;3.40;99.90
13998;DHT22;7074;51.508;7.018;2024-01-15T08:31:21;3.40;99.90
13998;DHT22;7074;51.508;7.018;2024-01-15T08:33:54;3.40;99.90
13998;DHT22;7074;51.508;7.018;2024-01-15T08:36:22;3.20;99.90
13998;DHT22;7074;51.508;7.018;2024-01-15T08:38:50;3.20;99.90
13998;DHT22;7074;51.508;7.018;2024-01-15T08:41:21;3.20;99.90
13998;DHT22;7074;51.508;7.018;2024-01-15T08:43:52;3.20;99.90
13998;DHT22;7074;51.508;7.018;2024-01-15T08:46:22;3.20;99.90
13998;DHT22;7074;51.508;7.018;2024-01-15T08:48:56;3.20;99.90
13998;DHT22;7074;51.508;7.018;2024-01-15T08:51:24;3.20;99.90
13998;DHT22;7074;51.508;7.018;2024-01-15T08:53:53;3.20;99.90
13998;DHT22;7074;51.508;7.018;2024-01-15T08:56:23;3.20;99.90
13998;DHT22;7074;51.508;7.018;2024-01-15T08:58:50;3.20;99.90
13998;DHT22;7074;51.508;7.018;2024-01-15T09:01:18;3.10;99.90
13998;DHT22;7074;51.508;7.018;2024-01-15T09:03:48;3.10;99.90
13998;DHT22;7074;51.508;7.018;2024-01-15T09:06:20;3.10;99.90
13998;DHT22;7074;51.508;7.018;2024-01-15T09:08:47;3.10;99.90
13998;DHT22;7074;51.508;7.018;2024-01-15T09:11:15;3.00;99.90
13998;DHT22;7074;51.508;7.018;2024-01-15T09:13:44;3.00;99.90
13998;DHT22;7074;51.508;7.018;2024-01-15T09:16:11;3.00;99.90
13998;DHT22;7074;51.508;7.018;2024-01-15T09:18:41;3.10;99.90
13998;DHT22;7074;51.508;7.018;2024-01-15T09:21:08;3.00;99.90
13998;DHT22;7074;51.508;7.018;2024-01-15T09:23:37;3.00;99.90
13998;DHT22;7074;51.508;7.018;2024-01-15T09:26:08;3.00;99.90
13998;DHT22;7074;51.508;7.018;2024-01-15T09:28:37;2.90;99.90
13998;DHT22;7074;51.508;7.018;2024-01-15T09:31:07;2.90;99.90
13998;DHT22;7074;51.508;7.018;2024-01-15T09:33:34;3.00;99.90
13998;DHT22;7074;51.508;7.018;2024-01-15T09:36:02;2.90;99.90
13998;DHT22;7074;51.508;7.018;2024-01-15T09:38:32;2.90;99.90
13998;DHT22;7074;51.508;7.018;2024-01-15T09:41:00;2.90;99.90
13998;DHT22;7074;51.508;7.018;2024-01-15T09:43:32;3.00;99.90
13998;DHT22;7074;51.508;7.018;2024-01-15T09:45:59;3.00;99.90
13998;DHT22;7074;51.508;7.018;2024-01-15T09:48:31;3.00;99.90
13998;DHT22;7074;51.508;7.018;2024-01-15T09:51:01;3.00;99.90
13998;DHT22;7074;51.508;7.018;2024-01-15T09:53:30;3.00;99.90
13998;DHT22;7074;51.508;7.018;2024-01-15T09:55:58;3.00;99.90
13998;DHT22;7074;51.508;7.018;2024-01-15T09:58:30;3.00;99.90
13998;DHT22;7074;51.508;7.018;2024-01-15T10:00:59;3.00;99.90
13998;DHT22;7074;51.508;7.018;2024-01-15T10:03:30;3.00;99.90
13998;DHT22;7074;51.508;7.018;2024-01-15T10:05:59;3.00;99.90
13998;DHT22;7074;51.508;7.018;2024-01-15T10:08:28;3.10;99.90
13998;DHT22;7074;51.508;7.018;2024-01-15T10:10:55;3.10;99.90
13998;DHT22;7074;51.508;7.018;2024-01-15T10:13:23;3.10;99.90
13998;DHT22;7074;51.508;7.018;2024-01-15T10:15:51;3.20;99.90
13998;DHT22;7074;51.508;7.018;2024-01-15T10:18:20;3.20;99.90
13998;DHT22;7074;51.508;7.018;2024-01-15T10:20:48;3.50;99.90
13998;DHT22;7074;51.508;7.018;2024-01-15T10:23:16;3.50;99.90
13998;DHT22;7074;51.508;7.018;2024-01-15T10:25:43;3.40;99.90
13998;DHT22;7074;51.508;7.018;2024-01-15T10:28:11;3.40;99.90
13998;DHT22;7074;51.508;7.018;2024-01-15T10:30:40;3.40;99.90
13998;DHT22;7074;51.508;7.018;2024-01-15T10:33:08;3.30;99.90
13998;DHT22;7074;51.508;7.018;2024-01-15T10:35:38;3.30;99.90
13998;DHT22;7074;51.508;7.018;2024-01-15T10:38:07;3.30;99.90
13998;DHT22;7074;51.508;7.018;2024-01-15T10:40:38;3.40;99.90
13998;DHT22;7074;51.508;7.018;2024-01-15T10:43:05;3.30;99.90
13998;DHT22;7074;51.508;7.018;2024-01-15T10:45:35;3.40;99.90
13998;DHT22;7074;51.508;7.018;2024-01-15T10:48:05;3.40;99.90
13998;DHT22;7074;51.508;7.018;2024-01-15T10:50:34;3.40;99.90
13998;DHT22;7074;51.508;7.018;2024-01-15T10:53:17;3.50;99.90
13998;DHT22;7074;51.508;7.018;2024-01-15T10:55:55;3.50;99.90
13998;DHT22;7074;51.508;7.018;2024-01-15T10:59:10;3.40;99.90
13998;DHT22;7074;51.508;7.018;2024-01-15T11:01:42;3.40;99.90
13998;DHT22;7074;51.508;7.018;2024-01-15T11:04:32;3.50;99.90
13998;DHT22;7074;51.508;7.018;2024-01-15T11:07:07;3.50;99.90
13998;DHT22;7074;51.508;7.018;2024-01-15T11:09:57;3.60;99.90
13998;DHT22;7074;51.508;7.018;2024-01-15T11:12:29;3.50;99.90
13998;DHT22;7074;51.508;7.018;2024-01-15T11:15:02;3.50;99.90
13998;DHT22;7074;51.508;7.018;2024-01-15T11:18:01;3.50;99.90
13998;DHT22;7074;51.508;7.018;2024-01-15T11:21:22;3.50;99.90
13998;DHT22;7074;51.508;7.018;2024-01-15T11:23:57;3.50;99.90
13998;DHT22;7074;51.508;7.018;2024-01-15T11:26:33;3.50;99.90
13998;DHT22;7074;51.508;7.018;2024-01-15T11:29:06;3.40;99.90
13998;DHT22;7074;51.508;7.018;2024-01-15T11:32:06;3.50;99.90
13998;DHT22;7074;51.508;7.018;2024-01-15T11:34:57;3.60;99.90
13998;DHT22;7074;51.508;7.018;2024-01-15T11:40:41;3.60;99.90
13998;DHT22;7074;51.508;7.018;2024-01-15T11:43:14;3.60;99.90
13998;DHT22;7074;51.508;7.018;2024-01-15T11:45:53;3.60;99.90
13998;DHT22;7074;51.508;7.018;2024-01-15T11:48:22;3.60;99.90
13998;DHT22;7074;51.508;7.018;2024-01-15T11:50:53;3.60;99.90
13998;DHT22;7074;51.508;7.018;2024-01-15T11:53:34;3.60;99.90
13998;DHT22;7074;51.508;7.018;2024-01-15T11:56:14;3.60;99.90
13998;DHT22;7074;51.508;7.018;2024-01-15T11:58:51;3.60;99.90
13998;DHT22;7074;51.508;7.018;2024-01-15T12:01:22;3.60;99.90
13998;DHT22;7074;51.508;7.018;2024-01-15T12:03:56;3.60;99.90
13998;DHT22;7074;51.508;7.018;2024-01-15T12:06:28;3.60;99.90
13998;DHT22;7074;51.508;7.018;2024-01-15T12:09:10;3.60;99.90
13998;DHT22;7074;51.508;7.018;2024-01-15T12:11:39;3.60;99.90
13998;DHT22;7074;51.508;7.018;2024-01-15T12:14:27;3.60;99.90
13998;DHT22;7074;51.508;7.018;2024-01-15T12:17:10;3.60;99.90
13998;DHT22;7074;51.508;7.018;2024-01-15T12:19:37;3.60;99.90
13998;DHT22;7074;51.508;7.018;2024-01-15T12:22:26;3.70;99.90
13998;DHT22;7074;51.508;7.018;2024-01-15T12:25:14;3.80;99.90
13998;DHT22;7074;51.508;7.018;2024-01-15T12:27:42;3.90;99.90
13998;DHT22;7074;51.508;7.018;2024-01-15T12:30:13;3.80;99.90
13998;DHT22;7074;51.508;7.018;2024-01-15T12:32:44;3.80;99.90
13998;DHT22;7074;51.508;7.018;2024-01-15T12:35:15;3.80;99.90
13998;DHT22;7074;51.508;7.018;2024-01-15T12:37:46;3.80;99.90
13998;DHT22;7074;51.508;7.018;2024-01-15T12:40:21;3.80;99.90
13998;DHT22;7074;51.508;7.018;2024-01-15T12:42:53;3.70;99.90
13998;DHT22;7074;51.508;7.018;2024-01-15T12:45:47;3.70;99.90
13998;DHT22;7074;51.508;7.018;2024-01-15T12:48:24;3.60;99.90
13998;DHT22;7074;51.508;7.018;2024-01-15T12:50:58;3.70;99.90
13998;DHT22;7074;51.508;7.018;2024-01-15T12:53:31;3.70;99.90
13998;DHT22;7074;51.508;7.018;2024-01-15T12:56:13;3.70;99.90
13998;DHT22;7074;51.508;7.018;2024-01-15T12:58:48;3.70;99.90
13998;DHT22;7074;51.508;7.018;2024-01-15T13:01:33;3.80;99.90
13998;DHT22;7074;51.508;7.018;2024-01-15T13:04:09;3.80;99.90
13998;DHT22;7074;51.508;7.018;2024-01-15T13:06:51;3.80;99.90
13998;DHT22;7074;51.508;7.018;2024-01-15T13:09:19;3.80;99.90
13998;DHT22;7074;51.508;7.018;2024-01-15T13:11:47;3.80;99.90
13998;DHT22;7074;51.508;7.018;2024-01-15T13:14:20;3.90;99.90
13998;DHT22;7074;51.508;7.018;2024-01-15T13:16:58;3.90;99.90
13998;DHT22;7074;51.508;7.018;2024-01-15T13:19:28;3.90;99.90
13998;DHT22;7074;51.508;7.018;2024-01-15T13:21:58;3.90;99.90
13998;DHT22;7074;51.508;7.018;2024-01-15T13:24:33;3.90;99.90
13998;DHT22;7074;51.508;7.018;2024-01-15T13:27:11;4.00;99.90
13998;DHT22;7074;51.508;7.018;2024-01-15T13:29:47;4.00;99.90
13998;DHT22;7074;51.508;7.018;2024-01-15T13:32:25;4.00;99.90
13998;DHT22;7074;51.508;7.018;2024-01-15T13:35:08;3.90;99.90
13998;DHT22;7074;51.508;7.018;2024-01-15T13:37:43;3.90;99.90
13998;DHT22;7074;51.508;7.018;2024-01-15T13:40:13;3.90;99.90
13998;DHT22;7074;51.508;7.018;2024-01-15T13:42:53;4.00;99.90
13998;DHT22;7074;51.508;7.018;2024-01-15T13:45:26;4.00;99.90
13998;DHT22;7074;51.508;7.018;2024-01-15T13:47:55;4.00;99.90
13998;DHT22;7074;51.508;7.018;2024-01-15T13:50:24;4.00;99.90
13998;DHT22;7074;51.508;7.018;2024-01-15T13:52:52;4.00;99.90
13998;DHT22;7074;51.508;7.018;2024-01-15T13:55:19;4.00;99.90
13998;DHT22;7074;51.508;7.018;2024-01-15T13:57:47;4.00;99.90
13998;DHT22;7074;51.508;7.018;2024-01-15T14:00:15;4.00;99.90
13998;DHT22;7074;51.508;7.018;2024-01-15T14:02:46;4.10;99.90
13998;DHT22;7074;51.508;7.018;2024-01-15T14:05:18;4.10;99.90
13998;DHT22;7074;51.508;7.018;2024-01-15T14:07:48;4.10;99.90
13998;DHT22;7074;51.508;7.018;2024-01-15T14:10:15;4.10;99.90
13998;DHT22;7074;51.508;7.018;2024-01-15T14:12:43;4.00;99.90
13998;DHT22;7074;51.508;7.018;2024-01-15T14:15:10;4.00;99.90
13998;DHT22;7074;51.508;7.018;2024-01-15T14:17:38;4.00;99.90
13998;DHT22;7074;51.508;7.018;2024-01-15T14:20:13;3.90;99.90
13998;DHT22;7074;51.508;7.018;2024-01-15T14:22:44;4.10;99.90
13998;DHT22;7074;51.508;7.018;2024-01-15T14:25:15;4.00;99.90
13998;DHT22;7074;51.508;7.018;2024-01-15T14:27:43;4.00;99.90
13998;DHT22;7074;51.508;7.018;2024-01-15T14:30:12;4.00;99.90
13998;DHT22;7074;51.508;7.018;2024-01-15T14:32:45;3.90;99.90
13998;DHT22;7074;51.508;7.018;2024-01-15T14:35:16;3.90;99.90
13998;DHT22;7074;51.508;7.018;2024-01-15T14:37:47;3.80;99.90
13998;DHT22;7074;51.508;7.018;2024-01-15T14:40:15;3.80;99.90
13998;DHT22;7074;51.508;7.018;2024-01-15T14:43:00;3.80;99.90
13998;DHT22;7074;51.508;7.018;2024-01-15T14:45:30;3.70;99.90
13998;DHT22;7074;51.508;7.018;2024-01-15T14:48:01;3.80;99.90
13998;DHT22;7074;51.508;7.018;2024-01-15T14:50:35;3.80;99.90
13998;DHT22;7074;51.508;7.018;2024-01-15T14:53:13;3.80;99.90
13998;DHT22;7074;51.508;7.018;2024-01-15T14:55:43;3.80;99.90
13998;DHT22;7074;51.508;7.018;2024-01-15T14:58:11;3.70;99.90
13998;DHT22;7074;51.508;7.018;2024-01-15T15:00:39;3.70;99.90
13998;DHT22;7074;51.508;7.018;2024-01-15T15:03:06;3.70;99.90
13998;DHT22;7074;51.508;7.018;2024-01-15T15:05:38;3.70;99.90
13998;DHT22;7074;51.508;7.018;2024-01-15T15:08:06;3.70;99.90
13998;DHT22;7074;51.508;7.018;2024-01-15T15:10:36;3.60;99.90
13998;DHT22;7074;51.508;7.018;2024-01-15T15:13:04;3.60;99.90
13998;DHT22;7074;51.508;7.018;2024-01-15T15:15:37;3.60;99.90
13998;DHT22;7074;51.508;7.018;2024-01-15T15:18:06;3.50;99.90
13998;DHT22;7074;51.508;7.018;2024-01-15T15:20:33;3.50;99.90
13998;DHT22;7074;51.508;7.018;2024-01-15T15:23:02;3.50;99.90
13998;DHT22;7074;51.508;7.018;2024-01-15T15:25:31;3.50;99.90
13998;DHT22;7074;51.508;7.018;2024-01-15T15:27:59;3.50;99.90
13998;DHT22;7074;51.508;7.018;2024-01-15T15:30:27;3.40;99.90
13998;DHT22;7074;51.508;7.018;2024-01-15T15:32:54;3.40;99.90
13998;DHT22;7074;51.508;7.018;2024-01-15T15:35:25;3.40;99.90
13998;DHT22;7074;51.508;7.018;2024-01-15T15:37:52;3.40;99.90
13998;DHT22;7074;51.508;7.018;2024-01-15T15:40:20;3.50;99.90
13998;DHT22;7074;51.508;7.018;2024-01-15T15:42:50;3.50;99.90
13998;DHT22;7074;51.508;7.018;2024-01-15T15:45:19;3.40;99.90
13998;DHT22;7074;51.508;7.018;2024-01-15T15:47:47;3.40;99.90
13998;DHT22;7074;51.508;7.018;2024-01-15T15:50:14;3.40;99.90
13998;DHT22;7074;51.508;7.018;2024-01-15T15:52:50;3.50;99.90
13998;DHT22;7074;51.508;7.018;2024-01-15T15:55:17;3.50;99.90
13998;DHT22;7074;51.508;7.018;2024-01-15T15:57:44;3.40;99.90
13998;DHT22;7074;51.508;7.018;2024-01-15T16:00:12;3.40;99.90
13998;DHT22;7074;51.508;7.018;2024-01-15T16:02:41;3.40;99.90
13998;DHT22;7074;51.508;7.018;2024-01-15T16:05:09;3.40;99.90
13998;DHT22;7074;51.508;7.018;2024-01-15T16:07:36;3.40;99.90
13998;DHT22;7074;51.508;7.018;2024-01-15T16:10:05;3.40;99.90
13998;DHT22;7074;51.508;7.018;2024-01-15T16:12:33;3.50;99.90
13998;DHT22;7074;51.508;7.018;2024-01-15T16:15:01;3.40;99.90
13998;DHT22;7074;51.508;7.018;2024-01-15T16:17:28;3.50;99.90
13998;DHT22;7074;51.508;7.018;2024-01-15T16:19:58;3.50;99.90
13998;DHT22;7074;51.508;7.018;2024-01-15T16:22:25;3.50;99.90
13998;DHT22;7074;51.508;7.018;2024-01-15T16:24:53;3.50;99.90